Aviation Digital Data Service (ADDS)

Output produced by METARs form (0146 UTC 20 October 2017)
found at http://aviationweather.gov/adds/metars/
 
KVQQ 200050Z 2001/2024 04010KT P6SM BKN020 
     FM200200 02005KT P6SM SCT025 
     FM201400 04008KT P6SM SCT025 
     FM201800 05011G17KT P6SM SCT030